createdAt,value
2023-06-17T00:01:00.909Z,15.78
2023-06-17T00:03:28.725Z,15.82
2023-06-17T00:05:55.837Z,15.86
2023-06-17T00:08:23.006Z,15.75
2023-06-17T00:10:50.494Z,15.75
2023-06-17T00:13:20.770Z,15.72
2023-06-17T00:15:52.166Z,15.71
2023-06-17T00:18:21.024Z,15.71
2023-06-17T00:20:49.361Z,15.70
2023-06-17T00:23:16.824Z,15.71
2023-06-17T00:25:44.308Z,15.64
2023-06-17T00:28:11.504Z,15.63
2023-06-17T00:30:38.780Z,15.68
2023-06-17T00:33:06.630Z,15.80
2023-06-17T00:35:35.166Z,15.96
2023-06-17T00:38:02.560Z,16.09
2023-06-17T00:40:30.028Z,16.18
2023-06-17T00:42:57.183Z,16.19
2023-06-17T00:45:24.416Z,16.12
2023-06-17T00:47:52.005Z,16.10
2023-06-17T00:50:20.722Z,16.01
2023-06-17T00:52:52.224Z,15.97
2023-06-17T00:55:19.770Z,15.88
2023-06-17T00:57:48.657Z,15.81
2023-06-17T01:00:16.418Z,15.76
2023-06-17T01:02:46.371Z,15.74
2023-06-17T01:05:17.892Z,15.72
2023-06-17T01:08:13.984Z,15.66
2023-06-17T01:10:52.019Z,15.64
2023-06-17T01:13:20.212Z,15.65
2023-06-17T01:15:47.796Z,15.72
2023-06-17T01:18:19.120Z,15.80
2023-06-17T01:20:50.053Z,15.76
2023-06-17T01:23:18.088Z,15.83
2023-06-17T01:25:47.130Z,15.89
2023-06-17T01:28:21.285Z,15.88
2023-06-17T01:30:49.197Z,15.87
2023-06-17T01:33:17.129Z,15.95
2023-06-17T01:35:53.857Z,15.99
2023-06-17T01:38:30.644Z,16.01
2023-06-17T01:41:09.365Z,16.09
2023-06-17T01:43:37.674Z,16.10
2023-06-17T01:46:05.552Z,16.02
2023-06-17T01:48:32.947Z,16.03
2023-06-17T01:51:00.589Z,16.05
2023-06-17T01:53:28.282Z,16.06
2023-06-17T01:55:55.817Z,15.98
2023-06-17T01:58:23.552Z,16.02
2023-06-17T02:00:50.932Z,16.01
2023-06-17T02:03:18.731Z,16.01
2023-06-17T02:05:46.017Z,16.07
2023-06-17T02:08:15.291Z,16.04
2023-06-17T02:10:42.918Z,16.01
2023-06-17T02:13:10.080Z,16.00
2023-06-17T02:15:37.374Z,16.00
2023-06-17T02:18:05.559Z,15.97
2023-06-17T02:20:33.119Z,15.96
2023-06-17T02:23:00.398Z,15.94
2023-06-17T02:25:27.704Z,15.94
2023-06-17T02:27:55.635Z,15.91
2023-06-17T02:30:23.333Z,15.87
2023-06-17T02:32:50.748Z,15.81
2023-06-17T02:35:20.851Z,15.78
2023-06-17T02:37:48.211Z,15.74
2023-06-17T02:40:15.430Z,15.77
2023-06-17T02:42:42.937Z,15.75
2023-06-17T02:45:12.841Z,15.70
2023-06-17T02:47:42.090Z,15.64
2023-06-17T02:50:10.388Z,15.57
2023-06-17T02:52:38.918Z,15.56
2023-06-17T02:55:07.116Z,15.54
2023-06-17T02:57:34.638Z,15.58
2023-06-17T03:00:02.060Z,15.56
2023-06-17T03:02:29.646Z,15.53
2023-06-17T03:04:57.974Z,15.53
2023-06-17T03:07:25.787Z,15.53
2023-06-17T03:09:53.098Z,15.51
2023-06-17T03:12:20.715Z,15.44
2023-06-17T03:14:48.713Z,15.41
2023-06-17T03:17:16.169Z,15.41
2023-06-17T03:19:44.945Z,15.36
2023-06-17T03:22:12.553Z,15.41
2023-06-17T03:24:39.967Z,15.42
2023-06-17T03:27:07.609Z,15.45
2023-06-17T03:29:37.735Z,15.50
2023-06-17T03:32:05.962Z,15.51
2023-06-17T03:34:34.313Z,15.58
2023-06-17T03:37:06.309Z,15.59
2023-06-17T03:39:33.828Z,15.61
2023-06-17T03:42:01.616Z,15.66
2023-06-17T03:44:28.843Z,15.67
2023-06-17T03:46:58.269Z,15.71
2023-06-17T03:49:25.828Z,15.70
2023-06-17T03:51:53.220Z,15.72
2023-06-17T03:54:20.755Z,15.73
2023-06-17T03:56:48.074Z,15.75
2023-06-17T03:59:16.316Z,15.85
2023-06-17T04:01:45.356Z,15.92
2023-06-17T04:04:12.906Z,15.98
2023-06-17T04:06:40.045Z,15.95
2023-06-17T04:09:07.264Z,15.98
2023-06-17T04:11:34.836Z,16.00
2023-06-17T04:14:02.087Z,16.07
2023-06-17T04:16:31.892Z,16.14
2023-06-17T04:18:59.633Z,16.19
2023-06-17T04:21:26.932Z,16.26
2023-06-17T04:23:54.259Z,16.36
2023-06-17T04:26:21.745Z,16.44
2023-06-17T04:28:49.252Z,16.42
2023-06-17T04:31:16.692Z,16.42
2023-06-17T04:33:44.430Z,16.51
2023-06-17T04:36:12.275Z,16.54
2023-06-17T04:38:40.774Z,16.60
2023-06-17T04:41:09.667Z,16.63
2023-06-17T04:43:39.897Z,16.67
2023-06-17T04:46:09.304Z,16.65
2023-06-17T04:48:38.441Z,16.69
2023-06-17T04:51:07.029Z,16.69
2023-06-17T04:53:34.735Z,16.72
2023-06-17T04:56:05.606Z,16.71
2023-06-17T04:58:32.899Z,16.71
2023-06-17T05:01:00.775Z,16.76
2023-06-17T05:03:28.384Z,16.74
2023-06-17T05:05:56.160Z,16.72
2023-06-17T05:08:23.960Z,16.67
2023-06-17T05:10:51.325Z,16.72
2023-06-17T05:13:18.601Z,16.73
2023-06-17T05:15:46.447Z,16.84
2023-06-17T05:18:13.728Z,16.96
2023-06-17T05:20:41.143Z,17.01
2023-06-17T05:23:09.155Z,17.04
2023-06-17T05:25:36.309Z,17.09
2023-06-17T05:28:06.481Z,17.23
2023-06-17T05:30:34.145Z,17.28
2023-06-17T05:33:01.923Z,17.33
2023-06-17T05:35:29.795Z,17.34
2023-06-17T05:37:58.132Z,17.33
2023-06-17T05:40:25.448Z,17.34
2023-06-17T05:42:52.932Z,17.27
2023-06-17T05:45:20.752Z,17.28
2023-06-17T05:47:48.958Z,17.26
2023-06-17T05:50:16.950Z,17.32
2023-06-17T05:52:46.768Z,17.39
2023-06-17T05:55:14.149Z,17.40
2023-06-17T05:57:41.718Z,17.42
2023-06-17T06:00:10.375Z,17.45
2023-06-17T06:02:40.708Z,17.51
2023-06-17T06:05:08.686Z,17.56
2023-06-17T06:07:36.012Z,17.62
2023-06-17T06:10:04.563Z,17.71
2023-06-17T06:12:32.369Z,17.80
2023-06-17T06:14:59.711Z,17.98
2023-06-17T06:17:27.240Z,18.01
2023-06-17T06:19:54.821Z,18.05
2023-06-17T06:22:22.122Z,18.08
2023-06-17T06:24:49.497Z,18.13
2023-06-17T06:27:17.056Z,18.25
2023-06-17T06:29:44.533Z,18.33
2023-06-17T06:32:11.891Z,18.40
2023-06-17T06:34:39.470Z,18.53
2023-06-17T06:37:06.917Z,18.59
2023-06-17T06:39:35.673Z,18.69
2023-06-17T06:42:03.287Z,18.77
2023-06-17T06:44:34.715Z,18.71
2023-06-17T06:47:01.946Z,18.69
2023-06-17T06:49:30.837Z,18.77
2023-06-17T06:51:58.073Z,18.82
2023-06-17T06:54:25.493Z,18.86
2023-06-17T06:56:52.998Z,18.80
2023-06-17T06:59:20.251Z,18.89
2023-06-17T07:01:47.489Z,18.94
2023-06-17T07:04:15.864Z,19.03
2023-06-17T07:06:44.238Z,19.07
2023-06-17T07:09:12.521Z,19.07
2023-06-17T07:11:40.599Z,19.20
2023-06-17T07:14:08.573Z,19.36
2023-06-17T07:16:36.295Z,19.52
2023-06-17T07:19:04.194Z,19.74
2023-06-17T07:21:32.239Z,19.87
2023-06-17T07:24:00.196Z,19.98
2023-06-17T07:26:27.953Z,20.08
2023-06-17T07:28:55.400Z,20.17
2023-06-17T07:31:24.222Z,20.25
2023-06-17T07:33:57.879Z,20.35
2023-06-17T07:36:27.008Z,20.28
2023-06-17T07:38:54.810Z,20.29
2023-06-17T07:41:22.119Z,20.36
2023-06-17T07:43:49.303Z,20.53
2023-06-17T07:46:17.034Z,20.57
2023-06-17T07:48:44.277Z,20.56
2023-06-17T07:51:11.672Z,20.58
2023-06-17T07:53:39.191Z,20.61
2023-06-17T07:56:06.943Z,20.61
2023-06-17T07:58:34.232Z,20.54
2023-06-17T08:01:02.728Z,20.50
2023-06-17T08:03:30.426Z,20.42
2023-06-17T08:05:58.280Z,20.25
2023-06-17T08:08:25.541Z,20.22
2023-06-17T08:10:53.029Z,20.30
2023-06-17T08:13:20.260Z,20.36
2023-06-17T08:15:47.453Z,20.42
2023-06-17T08:18:15.087Z,20.42
2023-06-17T08:20:42.485Z,20.42
2023-06-17T08:23:09.707Z,20.51
2023-06-17T08:25:37.254Z,20.53
2023-06-17T08:28:04.629Z,20.63
2023-06-17T08:30:31.866Z,20.67
2023-06-17T08:32:59.460Z,20.67
2023-06-17T08:35:26.668Z,20.69
2023-06-17T08:37:54.373Z,20.79
2023-06-17T08:40:23.683Z,20.88
2023-06-17T08:43:03.841Z,21.03
2023-06-17T08:45:31.764Z,21.18
2023-06-17T08:47:59.457Z,21.32
2023-06-17T08:50:28.061Z,21.50
2023-06-17T08:52:56.066Z,21.68
2023-06-17T08:55:23.333Z,21.84
2023-06-17T08:57:54.098Z,21.90
2023-06-17T09:00:21.962Z,21.75
2023-06-17T09:02:49.786Z,21.82
2023-06-17T09:05:17.586Z,21.96
2023-06-17T09:07:45.582Z,21.95
2023-06-17T09:10:15.914Z,21.94
2023-06-17T09:12:43.145Z,22.01
2023-06-17T09:15:18.149Z,22.08
2023-06-17T09:17:46.842Z,22.16
2023-06-17T09:20:16.459Z,22.09
2023-06-17T09:22:45.956Z,22.01
2023-06-17T09:25:15.502Z,22.15
2023-06-17T09:28:11.150Z,22.24
2023-06-17T09:30:38.476Z,22.18
2023-06-17T09:33:18.052Z,22.16
2023-06-17T09:35:46.039Z,22.06
2023-06-17T09:38:16.718Z,22.10
2023-06-17T09:40:43.981Z,22.22
2023-06-17T09:43:26.614Z,22.22
2023-06-17T09:46:00.862Z,22.24
2023-06-17T09:48:36.584Z,22.47
2023-06-17T09:51:10.370Z,22.43
2023-06-17T09:53:39.073Z,22.49
2023-06-17T09:56:12.020Z,22.62
2023-06-17T09:58:44.402Z,22.51
2023-06-17T10:01:13.003Z,22.65
2023-06-17T10:03:43.630Z,22.68
2023-06-17T10:06:13.094Z,22.66
2023-06-17T10:08:42.867Z,22.80
2023-06-17T10:11:12.863Z,22.83
2023-06-17T10:13:40.975Z,22.85
2023-06-17T10:16:13.974Z,22.86
2023-06-17T10:18:42.577Z,22.80
2023-06-17T10:21:12.931Z,22.51
2023-06-17T10:23:41.856Z,22.42
2023-06-17T10:26:09.611Z,22.33
2023-06-17T10:29:01.766Z,22.23
2023-06-17T10:31:33.907Z,22.31
2023-06-17T10:34:02.905Z,22.25
2023-06-17T10:36:30.828Z,22.23
2023-06-17T10:39:08.138Z,22.28
2023-06-17T10:41:41.804Z,22.45
2023-06-17T10:44:28.473Z,22.45
2023-06-17T10:46:56.868Z,22.50
2023-06-17T10:49:24.137Z,22.49
2023-06-17T10:51:58.492Z,22.51
2023-06-17T10:54:29.226Z,22.60
2023-06-17T10:56:56.450Z,22.61
2023-06-17T10:59:31.652Z,22.75
2023-06-17T11:02:04.896Z,22.77
2023-06-17T11:04:33.326Z,22.55
2023-06-17T11:07:01.967Z,22.54
2023-06-17T11:09:30.552Z,22.61
2023-06-17T11:11:58.491Z,22.58
2023-06-17T11:14:28.147Z,22.69
2023-06-17T11:16:55.415Z,22.75
2023-06-17T11:19:23.301Z,22.79
2023-06-17T11:22:04.631Z,22.88
2023-06-17T11:24:32.643Z,22.84
2023-06-17T11:27:01.558Z,22.72
2023-06-17T11:29:30.236Z,22.61
2023-06-17T11:32:01.417Z,22.62
2023-06-17T11:34:32.905Z,22.76
2023-06-17T11:37:02.075Z,22.79
2023-06-17T11:39:32.809Z,23.08
2023-06-17T11:42:03.102Z,23.09
2023-06-17T11:44:34.429Z,23.21
2023-06-17T11:47:09.881Z,23.17
2023-06-17T11:49:41.924Z,23.12
2023-06-17T11:52:11.040Z,23.18
2023-06-17T11:54:51.357Z,23.15
2023-06-17T11:57:22.956Z,23.21
2023-06-17T11:59:59.427Z,23.25
2023-06-17T12:02:29.639Z,23.22
2023-06-17T12:05:02.251Z,23.15
2023-06-17T12:07:30.112Z,23.13
2023-06-17T12:09:57.970Z,23.09
2023-06-17T12:12:26.400Z,23.10
2023-06-17T12:15:14.852Z,22.99
2023-06-17T12:17:45.486Z,22.83
2023-06-17T12:20:16.940Z,22.76
2023-06-17T12:22:45.420Z,22.85
2023-06-17T12:25:13.091Z,22.93
2023-06-17T12:27:41.309Z,23.03
2023-06-17T12:30:10.298Z,23.08
2023-06-17T12:32:38.318Z,23.03
2023-06-17T12:35:08.087Z,23.10
2023-06-17T12:37:37.144Z,23.15
2023-06-17T12:40:04.653Z,23.15
2023-06-17T12:42:32.393Z,23.21
2023-06-17T12:45:00.042Z,23.27
2023-06-17T12:47:27.780Z,23.32
2023-06-17T12:49:55.112Z,23.19
2023-06-17T12:52:22.676Z,23.24
2023-06-17T12:55:00.517Z,23.40
2023-06-17T12:57:28.628Z,23.43
2023-06-17T12:59:56.021Z,23.52
2023-06-17T13:02:23.380Z,23.62
2023-06-17T13:04:50.957Z,23.70
2023-06-17T13:07:18.677Z,23.82
2023-06-17T13:09:45.925Z,23.88
2023-06-17T13:12:14.869Z,23.87
2023-06-17T13:14:42.464Z,23.87
2023-06-17T13:17:10.999Z,23.83
2023-06-17T13:19:38.798Z,23.86
2023-06-17T13:22:06.309Z,23.90
2023-06-17T13:24:33.576Z,23.91
2023-06-17T13:27:01.135Z,23.99
2023-06-17T13:29:28.484Z,23.98
2023-06-17T13:31:56.425Z,23.93
2023-06-17T13:34:24.415Z,23.96
2023-06-17T13:36:51.612Z,24.06
2023-06-17T13:39:18.843Z,24.14
2023-06-17T13:41:46.210Z,24.06
2023-06-17T13:44:14.514Z,24.12
2023-06-17T13:46:41.969Z,24.10
2023-06-17T13:49:09.410Z,23.95
2023-06-17T13:51:36.531Z,23.83
2023-06-17T13:54:04.162Z,23.70
2023-06-17T13:56:31.697Z,23.61
2023-06-17T13:58:58.879Z,23.64
2023-06-17T14:01:26.094Z,23.73
2023-06-17T14:03:53.911Z,23.91
2023-06-17T14:06:21.759Z,24.01
2023-06-17T14:08:48.967Z,24.07
2023-06-17T14:11:16.366Z,24.15
2023-06-17T14:13:44.562Z,24.16
2023-06-17T14:16:12.850Z,24.17
2023-06-17T14:18:40.432Z,24.27
2023-06-17T14:21:08.017Z,24.22
2023-06-17T14:23:53.769Z,24.15
2023-06-17T14:26:21.267Z,24.01
2023-06-17T14:28:48.801Z,23.96
2023-06-17T14:31:15.959Z,23.99
2023-06-17T14:33:43.673Z,24.04
2023-06-17T14:36:11.161Z,24.07
2023-06-17T14:38:38.320Z,24.20
2023-06-17T14:41:05.805Z,24.15
2023-06-17T14:43:33.257Z,24.16
2023-06-17T14:46:00.683Z,24.16
2023-06-17T14:48:28.067Z,24.05
2023-06-17T14:50:55.595Z,24.03
2023-06-17T14:53:32.468Z,24.11
2023-06-17T14:56:30.214Z,24.12
2023-06-17T14:58:57.797Z,24.17
2023-06-17T15:01:29.163Z,24.28
2023-06-17T15:03:56.503Z,24.27
2023-06-17T15:06:23.709Z,24.19
2023-06-17T15:09:15.867Z,24.02
2023-06-17T15:11:48.908Z,23.90
2023-06-17T15:14:16.409Z,23.63
2023-06-17T15:16:43.546Z,23.64
2023-06-17T15:19:10.973Z,23.76
2023-06-17T15:21:38.846Z,23.71
2023-06-17T15:24:07.077Z,23.57
2023-06-17T15:26:34.940Z,23.71
2023-06-17T15:29:02.840Z,23.80
2023-06-17T15:31:30.070Z,23.94
2023-06-17T15:33:57.316Z,24.05
2023-06-17T15:36:24.838Z,24.14
2023-06-17T15:38:52.020Z,24.10
2023-06-17T15:41:19.387Z,24.19
2023-06-17T15:43:46.891Z,24.10
2023-06-17T15:46:14.180Z,24.14
2023-06-17T15:48:41.727Z,24.07
2023-06-17T15:51:09.245Z,24.06
2023-06-17T15:53:36.566Z,24.09
2023-06-17T15:56:03.914Z,24.11
2023-06-17T15:58:32.326Z,24.17
2023-06-17T16:00:59.956Z,24.07
2023-06-17T16:03:31.562Z,23.95
2023-06-17T16:05:59.848Z,23.95
2023-06-17T16:08:27.298Z,24.02
2023-06-17T16:10:54.917Z,24.12
2023-06-17T16:13:23.261Z,24.15
2023-06-17T16:15:50.872Z,24.18
2023-06-17T16:18:18.450Z,24.19
2023-06-17T16:20:46.369Z,24.15
2023-06-17T16:23:14.506Z,24.15
2023-06-17T16:25:54.931Z,24.09
2023-06-17T16:28:22.977Z,24.28
2023-06-17T16:30:50.599Z,24.28
2023-06-17T16:33:17.831Z,24.23
2023-06-17T16:35:45.105Z,24.20
2023-06-17T16:38:12.592Z,24.35
2023-06-17T16:40:39.818Z,24.29
2023-06-17T16:43:07.032Z,24.32
2023-06-17T16:45:35.367Z,24.14
2023-06-17T16:48:02.668Z,24.18
2023-06-17T16:50:29.830Z,24.25
2023-06-17T16:52:57.354Z,24.26
2023-06-17T16:55:24.567Z,24.29
2023-06-17T16:57:51.726Z,24.35
2023-06-17T17:00:19.870Z,24.19
2023-06-17T17:02:47.437Z,23.83
2023-06-17T17:05:14.710Z,23.80
2023-06-17T17:07:42.239Z,23.64
2023-06-17T17:10:09.646Z,23.73
2023-06-17T17:12:36.826Z,23.80
2023-06-17T17:15:04.495Z,23.86
2023-06-17T17:17:32.338Z,23.80
2023-06-17T17:19:59.515Z,23.73
2023-06-17T17:22:27.296Z,23.68
2023-06-17T17:24:54.572Z,23.62
2023-06-17T17:27:21.827Z,23.61
2023-06-17T17:29:49.304Z,23.52
2023-06-17T17:32:16.498Z,23.46
2023-06-17T17:34:43.621Z,23.34
2023-06-17T17:37:11.016Z,23.36
2023-06-17T17:39:38.335Z,23.32
2023-06-17T17:42:06.055Z,23.34
2023-06-17T17:44:33.544Z,23.38
2023-06-17T17:47:00.829Z,23.27
2023-06-17T17:49:28.033Z,23.33
2023-06-17T17:51:55.601Z,23.36
2023-06-17T17:54:25.035Z,23.23
2023-06-17T17:56:52.339Z,23.25
2023-06-17T17:59:19.830Z,23.16
2023-06-17T18:01:47.065Z,23.13
2023-06-17T18:04:14.664Z,22.97
2023-06-17T18:06:41.921Z,22.94
2023-06-17T18:09:09.191Z,22.92
2023-06-17T18:11:37.248Z,22.75
2023-06-17T18:14:04.524Z,22.71
2023-06-17T18:16:33.198Z,22.53
2023-06-17T18:19:00.779Z,22.45
2023-06-17T18:21:29.818Z,22.45
2023-06-17T18:23:57.138Z,22.38
2023-06-17T18:26:25.400Z,22.23
2023-06-17T18:28:52.580Z,22.17
2023-06-17T18:31:22.635Z,22.05
2023-06-17T18:33:50.109Z,21.91
2023-06-17T18:36:17.433Z,21.83
2023-06-17T18:38:44.643Z,21.73
2023-06-17T18:41:12.185Z,21.60
2023-06-17T18:43:39.372Z,21.44
2023-06-17T18:46:06.700Z,21.28
2023-06-17T18:48:34.265Z,21.09
2023-06-17T18:51:01.584Z,20.80
2023-06-17T18:53:28.771Z,20.64
2023-06-17T18:55:56.644Z,20.53
2023-06-17T18:58:23.991Z,20.42
2023-06-17T19:00:51.251Z,20.21
2023-06-17T19:03:19.093Z,20.13
2023-06-17T19:05:46.311Z,20.03
2023-06-17T19:08:13.508Z,19.85
2023-06-17T19:10:41.084Z,19.69
2023-06-17T19:13:08.324Z,19.53
2023-06-17T19:15:36.395Z,19.43
2023-06-17T19:18:04.048Z,19.35
2023-06-17T19:20:31.375Z,19.08
2023-06-17T19:22:58.636Z,18.92
2023-06-17T19:25:26.957Z,18.74
2023-06-17T19:27:54.181Z,18.59
2023-06-17T19:30:21.696Z,18.38
2023-06-17T19:32:49.381Z,18.26
2023-06-17T19:35:16.649Z,18.15
2023-06-17T19:37:44.023Z,18.24
2023-06-17T19:40:12.283Z,18.27
2023-06-17T19:42:39.477Z,18.20
2023-06-17T19:45:07.297Z,18.20
2023-06-17T19:47:34.859Z,18.30
2023-06-17T19:50:02.092Z,18.35
2023-06-17T19:52:29.664Z,18.36
2023-06-17T19:54:57.721Z,18.27
2023-06-17T19:57:24.935Z,18.27
2023-06-17T19:59:52.252Z,18.29
2023-06-17T20:02:20.676Z,18.26
2023-06-17T20:04:48.347Z,18.26
2023-06-17T20:07:15.661Z,18.19
2023-06-17T20:09:42.858Z,18.06
2023-06-17T20:12:12.421Z,17.97
2023-06-17T20:14:39.788Z,17.94
2023-06-17T20:17:08.631Z,17.94
2023-06-17T20:19:36.103Z,18.00
2023-06-17T20:22:03.587Z,17.89
2023-06-17T20:24:30.876Z,17.85
2023-06-17T20:26:59.482Z,17.87
2023-06-17T20:29:26.863Z,17.95
2023-06-17T20:31:54.377Z,18.06
2023-06-17T20:34:23.433Z,18.21
2023-06-17T20:36:51.734Z,18.32
2023-06-17T20:39:18.988Z,18.41
2023-06-17T20:41:46.446Z,18.47
2023-06-17T20:44:13.624Z,18.46
2023-06-17T20:46:40.891Z,18.44
2023-06-17T20:49:08.472Z,18.38
2023-06-17T20:51:36.154Z,18.30
2023-06-17T20:54:03.584Z,18.26
2023-06-17T20:56:37.059Z,18.25
2023-06-17T20:59:04.384Z,18.20
2023-06-17T21:01:31.920Z,18.17
2023-06-17T21:03:59.149Z,18.16
2023-06-17T21:06:26.350Z,18.19
2023-06-17T21:08:53.887Z,18.19
2023-06-17T21:11:21.291Z,18.20
2023-06-17T21:13:48.474Z,18.18
2023-06-17T21:16:16.277Z,18.24
2023-06-17T21:18:43.574Z,18.23
2023-06-17T21:21:11.043Z,18.20
2023-06-17T21:23:38.608Z,18.17
2023-06-17T21:26:05.856Z,18.14
2023-06-17T21:28:33.050Z,18.12
2023-06-17T21:31:00.535Z,18.10
2023-06-17T21:33:27.827Z,17.99
2023-06-17T21:35:55.244Z,17.96
2023-06-17T21:38:22.812Z,17.91
2023-06-17T21:40:50.048Z,17.82
2023-06-17T21:43:17.223Z,17.83
2023-06-17T21:45:44.718Z,17.71
2023-06-17T21:48:12.113Z,17.66
2023-06-17T21:50:42.250Z,17.61
2023-06-17T21:53:09.900Z,17.58
2023-06-17T21:55:37.065Z,17.56
2023-06-17T21:58:04.349Z,17.57
2023-06-17T22:00:31.821Z,17.54
2023-06-17T22:02:59.364Z,17.51
2023-06-17T22:05:27.852Z,17.45
2023-06-17T22:07:55.152Z,17.43
2023-06-17T22:10:22.935Z,17.43
2023-06-17T22:12:51.600Z,17.46
2023-06-17T22:15:18.815Z,17.47
2023-06-17T22:17:46.652Z,17.44
2023-06-17T22:20:14.808Z,17.31
2023-06-17T22:22:42.981Z,17.16
2023-06-17T22:25:10.450Z,17.00
2023-06-17T22:27:37.675Z,16.88
2023-06-17T22:30:05.420Z,16.80
2023-06-17T22:32:33.240Z,16.73
2023-06-17T22:35:00.821Z,16.72
2023-06-17T22:37:28.071Z,16.74
2023-06-17T22:39:55.602Z,16.72
2023-06-17T22:42:22.888Z,16.80
2023-06-17T22:44:50.148Z,16.84
2023-06-17T22:47:17.642Z,16.92
2023-06-17T22:49:44.896Z,16.93
2023-06-17T22:52:12.062Z,16.92
2023-06-17T22:54:39.629Z,17.02
2023-06-17T22:57:07.610Z,16.98
2023-06-17T22:59:34.870Z,16.98
2023-06-17T23:02:02.626Z,17.03
2023-06-17T23:04:31.845Z,16.99
2023-06-17T23:06:59.993Z,17.06
2023-06-17T23:09:27.534Z,17.07
2023-06-17T23:11:54.742Z,17.07
2023-06-17T23:14:24.800Z,17.06
2023-06-17T23:16:52.573Z,16.97
2023-06-17T23:19:19.907Z,16.82
2023-06-17T23:21:47.108Z,16.69
2023-06-17T23:24:15.214Z,16.57
2023-06-17T23:26:42.462Z,16.49
2023-06-17T23:29:12.748Z,16.37
2023-06-17T23:31:40.561Z,16.17
2023-06-17T23:34:07.804Z,16.12
2023-06-17T23:36:35.020Z,16.11
2023-06-17T23:39:02.658Z,16.05
2023-06-17T23:41:29.907Z,15.89
2023-06-17T23:43:57.173Z,15.79
2023-06-17T23:46:25.172Z,15.79
2023-06-17T23:48:52.377Z,15.70
2023-06-17T23:51:19.922Z,15.71
2023-06-17T23:53:47.405Z,15.57
2023-06-17T23:56:14.868Z,15.53
2023-06-17T23:58:42.156Z,15.51
